sensor_id;sensor_type;location;lat;lon;timestamp;pressure;altitude;pressure_sealevel;temperature;humidity
17764;BME280;22245;52.832;13.816;2023-04-27T00:00:19;101634.03;;;5.56;72.22
17764;BME280;22245;52.832;13.816;2023-04-27T00:03:41;101637.78;;;5.52;71.85
17764;BME280;22245;52.832;13.816;2023-04-27T00:07:05;101637.00;;;5.50;72.28
17764;BME280;22245;52.832;13.816;2023-04-27T00:10:27;101631.78;;;5.48;72.47
17764;BME280;22245;52.832;13.816;2023-04-27T00:13:48;101635.44;;;5.46;72.18
17764;BME280;22245;52.832;13.816;2023-04-27T00:17:10;101635.50;;;5.44;72.22
17764;BME280;22245;52.832;13.816;2023-04-27T00:20:32;101638.25;;;5.43;72.24
17764;BME280;22245;52.832;13.816;2023-04-27T00:23:54;101639.31;;;5.39;72.31
17764;BME280;22245;52.832;13.816;2023-04-27T00:27:16;101631.56;;;5.35;72.40
17764;BME280;22245;52.832;13.816;2023-04-27T00:30:38;101634.25;;;5.34;72.08
17764;BME280;22245;52.832;13.816;2023-04-27T00:34:00;101631.75;;;5.31;72.54
17764;BME280;22245;52.832;13.816;2023-04-27T00:37:21;101628.41;;;5.27;72.33
17764;BME280;22245;52.832;13.816;2023-04-27T00:40:45;101635.47;;;5.27;72.51
17764;BME280;22245;52.832;13.816;2023-04-27T00:44:08;101638.19;;;5.25;72.30
17764;BME280;22245;52.832;13.816;2023-04-27T00:47:30;101643.47;;;5.25;72.31
17764;BME280;22245;52.832;13.816;2023-04-27T00:50:52;101647.03;;;5.24;72.45
17764;BME280;22245;52.832;13.816;2023-04-27T00:54:14;101651.53;;;5.22;72.37
17764;BME280;22245;52.832;13.816;2023-04-27T00:57:36;101652.47;;;5.21;72.50
17764;BME280;22245;52.832;13.816;2023-04-27T01:00:59;101656.13;;;5.18;71.91
17764;BME280;22245;52.832;13.816;2023-04-27T01:04:22;101652.72;;;5.16;72.15
17764;BME280;22245;52.832;13.816;2023-04-27T01:07:44;101666.91;;;5.14;72.23
17764;BME280;22245;52.832;13.816;2023-04-27T01:11:05;101656.50;;;5.11;72.20
17764;BME280;22245;52.832;13.816;2023-04-27T01:14:27;101669.84;;;5.07;72.30
17764;BME280;22245;52.832;13.816;2023-04-27T01:17:56;101663.84;;;5.04;72.59
17764;BME280;22245;52.832;13.816;2023-04-27T01:21:18;101663.16;;;5.00;72.95
17764;BME280;22245;52.832;13.816;2023-04-27T01:24:40;101665.94;;;4.97;72.96
17764;BME280;22245;52.832;13.816;2023-04-27T01:28:02;101664.38;;;4.93;73.20
17764;BME280;22245;52.832;13.816;2023-04-27T01:31:24;101668.03;;;4.89;73.09
17764;BME280;22245;52.832;13.816;2023-04-27T01:34:46;101667.25;;;4.87;73.42
17764;BME280;22245;52.832;13.816;2023-04-27T01:38:08;101661.34;;;4.82;73.50
17764;BME280;22245;52.832;13.816;2023-04-27T01:41:31;101672.91;;;4.79;73.58
17764;BME280;22245;52.832;13.816;2023-04-27T01:44:52;101672.13;;;4.77;73.29
17764;BME280;22245;52.832;13.816;2023-04-27T01:48:14;101672.19;;;4.75;73.60
17764;BME280;22245;52.832;13.816;2023-04-27T01:51:36;101679.31;;;4.73;73.59
17764;BME280;22245;52.832;13.816;2023-04-27T01:54:58;101680.31;;;4.71;74.00
17764;BME280;22245;52.832;13.816;2023-04-27T01:58:21;101679.47;;;4.70;73.28
17764;BME280;22245;52.832;13.816;2023-04-27T02:01:43;101685.59;;;4.71;73.79
17764;BME280;22245;52.832;13.816;2023-04-27T02:05:06;101688.16;;;4.72;73.82
17764;BME280;22245;52.832;13.816;2023-04-27T02:08:27;101687.25;;;4.73;73.28
17764;BME280;22245;52.832;13.816;2023-04-27T02:11:49;101688.16;;;4.72;73.49
17764;BME280;22245;52.832;13.816;2023-04-27T02:15:12;101689.09;;;4.71;73.82
17764;BME280;22245;52.832;13.816;2023-04-27T02:18:33;101696.13;;;4.71;73.86
17764;BME280;22245;52.832;13.816;2023-04-27T02:21:55;101698.88;;;4.69;74.00
17764;BME280;22245;52.832;13.816;2023-04-27T02:25:17;101696.22;;;4.69;73.86
17764;BME280;22245;52.832;13.816;2023-04-27T02:28:39;101695.44;;;4.67;73.88
17764;BME280;22245;52.832;13.816;2023-04-27T02:32:03;101699.84;;;4.67;73.98
17764;BME280;22245;52.832;13.816;2023-04-27T02:35:25;101698.13;;;4.66;73.65
17764;BME280;22245;52.832;13.816;2023-04-27T02:38:47;101699.84;;;4.67;73.08
17764;BME280;22245;52.832;13.816;2023-04-27T02:42:08;101706.91;;;4.66;73.69
17764;BME280;22245;52.832;13.816;2023-04-27T02:45:30;101705.13;;;4.67;73.42
17764;BME280;22245;52.832;13.816;2023-04-27T02:48:54;101710.41;;;4.67;73.64
17764;BME280;22245;52.832;13.816;2023-04-27T02:52:15;101705.22;;;4.65;73.72
17764;BME280;22245;52.832;13.816;2023-04-27T02:55:37;101706.13;;;4.64;73.91
17764;BME280;22245;52.832;13.816;2023-04-27T02:58:59;101703.50;;;4.64;73.85
17764;BME280;22245;52.832;13.816;2023-04-27T03:02:21;101706.13;;;4.64;73.82
17764;BME280;22245;52.832;13.816;2023-04-27T03:05:44;101709.75;;;4.61;74.07
17764;BME280;22245;52.832;13.816;2023-04-27T03:09:05;101709.84;;;4.60;74.13
17764;BME280;22245;52.832;13.816;2023-04-27T03:12:29;101718.69;;;4.59;73.76
17764;BME280;22245;52.832;13.816;2023-04-27T03:15:51;101717.94;;;4.55;73.91
17764;BME280;22245;52.832;13.816;2023-04-27T03:19:13;101718.00;;;4.54;74.21
17764;BME280;22245;52.832;13.816;2023-04-27T03:22:36;101727.75;;;4.52;73.94
17764;BME280;22245;52.832;13.816;2023-04-27T03:25:58;101729.63;;;4.49;73.76
17764;BME280;22245;52.832;13.816;2023-04-27T03:29:20;101722.75;;;4.45;73.78
17764;BME280;22245;52.832;13.816;2023-04-27T03:32:41;101729.03;;;4.43;73.75
17764;BME280;22245;52.832;13.816;2023-04-27T03:36:07;101730.03;;;4.40;73.89
17764;BME280;22245;52.832;13.816;2023-04-27T03:39:31;101736.22;;;4.39;74.20
17764;BME280;22245;52.832;13.816;2023-04-27T03:42:52;101741.69;;;4.34;74.60
17764;BME280;22245;52.832;13.816;2023-04-27T03:46:15;101743.53;;;4.32;74.92
17764;BME280;22245;52.832;13.816;2023-04-27T03:49:37;101744.53;;;4.30;74.69
17764;BME280;22245;52.832;13.816;2023-04-27T03:52:59;101744.53;;;4.30;74.56
17764;BME280;22245;52.832;13.816;2023-04-27T03:56:22;101745.38;;;4.30;74.89
17764;BME280;22245;52.832;13.816;2023-04-27T03:59:44;101749.69;;;4.33;74.84
17764;BME280;22245;52.832;13.816;2023-04-27T04:03:06;101747.88;;;4.33;74.12
17764;BME280;22245;52.832;13.816;2023-04-27T04:06:28;101757.50;;;4.34;75.15
17764;BME280;22245;52.832;13.816;2023-04-27T04:09:50;101760.97;;;4.37;75.65
17764;BME280;22245;52.832;13.816;2023-04-27T04:13:13;101761.81;;;4.37;74.85
17764;BME280;22245;52.832;13.816;2023-04-27T04:16:34;101769.66;;;4.39;74.83
17764;BME280;22245;52.832;13.816;2023-04-27T04:19:56;101767.75;;;4.42;74.25
17764;BME280;22245;52.832;13.816;2023-04-27T04:23:17;101772.97;;;4.44;74.17
17764;BME280;22245;52.832;13.816;2023-04-27T04:26:39;101778.94;;;4.47;74.75
17764;BME280;22245;52.832;13.816;2023-04-27T04:30:03;101776.97;;;4.53;74.52
17764;BME280;22245;52.832;13.816;2023-04-27T04:33:27;101783.06;;;4.55;74.42
17764;BME280;22245;52.832;13.816;2023-04-27T04:36:48;101782.00;;;4.59;74.61
17764;BME280;22245;52.832;13.816;2023-04-27T04:40:12;101781.00;;;4.61;74.08
17764;BME280;22245;52.832;13.816;2023-04-27T04:43:34;101781.78;;;4.63;74.32
17764;BME280;22245;52.832;13.816;2023-04-27T04:47:00;101788.84;;;4.63;73.61
17764;BME280;22245;52.832;13.816;2023-04-27T04:50:21;101788.72;;;4.66;74.09
17764;BME280;22245;52.832;13.816;2023-04-27T04:53:43;101797.47;;;4.67;74.13
17764;BME280;22245;52.832;13.816;2023-04-27T04:57:04;101793.00;;;4.69;73.66
17764;BME280;22245;52.832;13.816;2023-04-27T05:00:27;101803.41;;;4.72;73.29
17764;BME280;22245;52.832;13.816;2023-04-27T05:03:50;101796.19;;;4.77;73.46
17764;BME280;22245;52.832;13.816;2023-04-27T05:07:12;101799.31;;;4.85;72.71
17764;BME280;22245;52.832;13.816;2023-04-27T05:10:35;101793.91;;;4.88;71.67
17764;BME280;22245;52.832;13.816;2023-04-27T05:13:56;101795.53;;;4.91;71.83
17764;BME280;22245;52.832;13.816;2023-04-27T05:17:17;101797.16;;;4.95;72.19
17764;BME280;22245;52.832;13.816;2023-04-27T05:20:41;101796.91;;;5.00;72.22
17764;BME280;22245;52.832;13.816;2023-04-27T05:24:03;101792.44;;;5.02;71.16
17764;BME280;22245;52.832;13.816;2023-04-27T05:27:24;101798.22;;;5.10;70.93
17764;BME280;22245;52.832;13.816;2023-04-27T05:30:46;101803.56;;;5.09;70.63
17764;BME280;22245;52.832;13.816;2023-04-27T05:34:07;101810.78;;;5.05;70.37
17764;BME280;22245;52.832;13.816;2023-04-27T05:37:31;101801.22;;;5.02;69.89
17764;BME280;22245;52.832;13.816;2023-04-27T05:40:53;101803.72;;;5.05;70.56
17764;BME280;22245;52.832;13.816;2023-04-27T05:44:14;101805.22;;;5.11;70.24
17764;BME280;22245;52.832;13.816;2023-04-27T05:47:36;101800.47;;;5.19;69.88
17764;BME280;22245;52.832;13.816;2023-04-27T05:51:00;101803.66;;;5.26;70.10
17764;BME280;22245;52.832;13.816;2023-04-27T05:54:23;101805.94;;;5.34;69.49
17764;BME280;22245;52.832;13.816;2023-04-27T05:57:45;101805.03;;;5.35;68.20
17764;BME280;22245;52.832;13.816;2023-04-27T06:01:19;101802.19;;;5.40;68.99
17764;BME280;22245;52.832;13.816;2023-04-27T06:04:41;101805.25;;;5.49;68.37
17764;BME280;22245;52.832;13.816;2023-04-27T06:08:03;101805.91;;;5.55;67.39
17764;BME280;22245;52.832;13.816;2023-04-27T06:11:26;101809.09;;;5.61;67.11
17764;BME280;22245;52.832;13.816;2023-04-27T06:14:47;101813.28;;;5.65;66.50
17764;BME280;22245;52.832;13.816;2023-04-27T06:18:09;101808.69;;;5.71;66.66
17764;BME280;22245;52.832;13.816;2023-04-27T06:21:31;101811.94;;;5.76;65.77
17764;BME280;22245;52.832;13.816;2023-04-27T06:24:52;101811.66;;;5.82;65.61
17764;BME280;22245;52.832;13.816;2023-04-27T06:28:15;101814.78;;;5.90;65.57
17764;BME280;22245;52.832;13.816;2023-04-27T06:31:36;101815.34;;;5.97;64.50
17764;BME280;22245;52.832;13.816;2023-04-27T06:34:58;101814.06;;;6.06;64.31
17764;BME280;22245;52.832;13.816;2023-04-27T06:38:20;101825.91;;;6.16;63.70
17764;BME280;22245;52.832;13.816;2023-04-27T06:41:42;101821.97;;;6.25;63.42
17764;BME280;22245;52.832;13.816;2023-04-27T06:45:12;101828.81;;;6.29;62.06
17764;BME280;22245;52.832;13.816;2023-04-27T06:48:33;101830.75;;;6.26;61.47
17764;BME280;22245;52.832;13.816;2023-04-27T06:51:56;101832.31;;;6.30;61.90
17764;BME280;22245;52.832;13.816;2023-04-27T06:55:17;101824.00;;;6.37;61.92
17764;BME280;22245;52.832;13.816;2023-04-27T06:58:39;101815.66;;;6.45;61.63
17764;BME280;22245;52.832;13.816;2023-04-27T07:02:02;101827.56;;;6.54;61.46
17764;BME280;22245;52.832;13.816;2023-04-27T07:05:23;101823.59;;;6.63;60.69
17764;BME280;22245;52.832;13.816;2023-04-27T07:08:45;101832.31;;;6.65;60.36
17764;BME280;22245;52.832;13.816;2023-04-27T07:12:07;101828.56;;;6.69;60.36
17764;BME280;22245;52.832;13.816;2023-04-27T07:15:29;101818.59;;;6.74;59.54
17764;BME280;22245;52.832;13.816;2023-04-27T07:18:52;101832.44;;;6.79;59.53
17764;BME280;22245;52.832;13.816;2023-04-27T07:22:13;101833.09;;;6.85;60.33
17764;BME280;22245;52.832;13.816;2023-04-27T07:25:35;101830.88;;;6.93;59.84
17764;BME280;22245;52.832;13.816;2023-04-27T07:28:57;101831.50;;;6.98;59.08
17764;BME280;22245;52.832;13.816;2023-04-27T07:32:18;101832.88;;;7.05;58.00
17764;BME280;22245;52.832;13.816;2023-04-27T07:35:41;101831.00;;;7.07;57.44
17764;BME280;22245;52.832;13.816;2023-04-27T07:39:03;101826.59;;;7.08;57.98
17764;BME280;22245;52.832;13.816;2023-04-27T07:42:25;101830.06;;;7.08;58.16
17764;BME280;22245;52.832;13.816;2023-04-27T07:45:47;101836.75;;;7.16;57.88
17764;BME280;22245;52.832;13.816;2023-04-27T07:49:09;101839.16;;;7.20;57.43
17764;BME280;22245;52.832;13.816;2023-04-27T07:52:34;101834.56;;;7.24;56.87
17764;BME280;22245;52.832;13.816;2023-04-27T07:55:56;101830.97;;;7.25;54.75
17764;BME280;22245;52.832;13.816;2023-04-27T07:59:18;101833.97;;;7.35;54.76
17764;BME280;22245;52.832;13.816;2023-04-27T08:02:39;101839.63;;;7.45;56.54
17764;BME280;22245;52.832;13.816;2023-04-27T08:06:01;101851.78;;;7.49;53.77
17764;BME280;22245;52.832;13.816;2023-04-27T08:09:26;101838.44;;;7.50;54.15
17764;BME280;22245;52.832;13.816;2023-04-27T08:12:47;101854.09;;;7.55;55.16
17764;BME280;22245;52.832;13.816;2023-04-27T08:16:09;101848.47;;;7.61;53.85
17764;BME280;22245;52.832;13.816;2023-04-27T08:19:31;101852.84;;;7.62;52.88
17764;BME280;22245;52.832;13.816;2023-04-27T08:22:52;101840.53;;;7.61;50.86
17764;BME280;22245;52.832;13.816;2023-04-27T08:26:15;101846.41;;;7.66;51.49
17764;BME280;22245;52.832;13.816;2023-04-27T08:29:36;101842.31;;;7.77;51.32
17764;BME280;22245;52.832;13.816;2023-04-27T08:32:58;101840.19;;;7.84;49.51
17764;BME280;22245;52.832;13.816;2023-04-27T08:36:20;101841.72;;;7.88;50.38
17764;BME280;22245;52.832;13.816;2023-04-27T08:39:43;101840.94;;;7.86;50.33
17764;BME280;22245;52.832;13.816;2023-04-27T08:43:07;101850.50;;;7.88;50.41
17764;BME280;22245;52.832;13.816;2023-04-27T08:46:28;101847.84;;;7.88;48.72
17764;BME280;22245;52.832;13.816;2023-04-27T08:49:50;101853.34;;;7.85;49.41
17764;BME280;22245;52.832;13.816;2023-04-27T08:53:16;101848.81;;;7.87;48.77
17764;BME280;22245;52.832;13.816;2023-04-27T08:56:38;101853.63;;;7.96;48.84
17764;BME280;22245;52.832;13.816;2023-04-27T09:00:00;101844.84;;;7.94;47.11
17764;BME280;22245;52.832;13.816;2023-04-27T09:03:31;101843.41;;;8.05;47.50
17764;BME280;22245;52.832;13.816;2023-04-27T09:06:53;101834.91;;;8.14;47.52
17764;BME280;22245;52.832;13.816;2023-04-27T09:10:15;101844.75;;;8.28;46.60
17764;BME280;22245;52.832;13.816;2023-04-27T09:13:38;101853.38;;;8.32;45.74
17764;BME280;22245;52.832;13.816;2023-04-27T09:17:02;101846.53;;;8.28;45.93
17764;BME280;22245;52.832;13.816;2023-04-27T09:20:23;101844.47;;;8.33;46.37
17764;BME280;22245;52.832;13.816;2023-04-27T09:23:46;101843.53;;;8.34;46.37
17764;BME280;22245;52.832;13.816;2023-04-27T09:27:08;101833.50;;;8.39;46.69
17764;BME280;22245;52.832;13.816;2023-04-27T09:30:29;101825.19;;;8.45;44.35
17764;BME280;22245;52.832;13.816;2023-04-27T09:33:54;101832.97;;;8.48;44.48
17764;BME280;22245;52.832;13.816;2023-04-27T09:37:17;101822.00;;;8.54;45.37
17764;BME280;22245;52.832;13.816;2023-04-27T09:40:39;101823.72;;;8.56;46.06
17764;BME280;22245;52.832;13.816;2023-04-27T09:44:01;101826.38;;;8.56;43.88
17764;BME280;22245;52.832;13.816;2023-04-27T09:47:24;101836.81;;;8.59;44.25
17764;BME280;22245;52.832;13.816;2023-04-27T09:50:50;101838.50;;;8.60;44.60
17764;BME280;22245;52.832;13.816;2023-04-27T09:54:13;101829.72;;;8.59;44.98
17764;BME280;22245;52.832;13.816;2023-04-27T09:57:41;101818.41;;;8.56;44.37
17764;BME280;22245;52.832;13.816;2023-04-27T10:01:12;101826.47;;;8.54;43.92
17764;BME280;22245;52.832;13.816;2023-04-27T10:04:52;101829.28;;;8.51;44.85
17764;BME280;22245;52.832;13.816;2023-04-27T10:08:20;101813.97;;;8.56;44.92
17764;BME280;22245;52.832;13.816;2023-04-27T10:11:43;101817.00;;;8.64;45.27
17764;BME280;22245;52.832;13.816;2023-04-27T10:15:12;101821.19;;;8.68;43.61
17764;BME280;22245;52.832;13.816;2023-04-27T10:18:35;101811.50;;;8.82;45.79
17764;BME280;22245;52.832;13.816;2023-04-27T10:21:57;101815.41;;;8.91;44.71
17764;BME280;22245;52.832;13.816;2023-04-27T10:25:22;101796.25;;;9.00;44.27
17764;BME280;22245;52.832;13.816;2023-04-27T10:28:44;101810.41;;;9.15;45.25
17764;BME280;22245;52.832;13.816;2023-04-27T10:32:09;101808.78;;;9.27;41.92
17764;BME280;22245;52.832;13.816;2023-04-27T10:35:35;101809.34;;;9.32;44.18
17764;BME280;22245;52.832;13.816;2023-04-27T10:38:56;101804.78;;;9.34;45.22
17764;BME280;22245;52.832;13.816;2023-04-27T10:42:28;101806.28;;;9.38;44.33
17764;BME280;22245;52.832;13.816;2023-04-27T10:45:50;101817.41;;;9.45;43.92
17764;BME280;22245;52.832;13.816;2023-04-27T10:49:11;101807.72;;;9.44;44.07
17764;BME280;22245;52.832;13.816;2023-04-27T10:52:33;101811.13;;;9.46;43.45
17764;BME280;22245;52.832;13.816;2023-04-27T10:55:54;101811.53;;;9.40;43.51
17764;BME280;22245;52.832;13.816;2023-04-27T10:59:18;101808.75;;;9.41;43.62
17764;BME280;22245;52.832;13.816;2023-04-27T11:02:40;101823.09;;;9.39;43.70
17764;BME280;22245;52.832;13.816;2023-04-27T11:06:03;101815.22;;;9.37;43.72
17764;BME280;22245;52.832;13.816;2023-04-27T11:09:25;101819.03;;;9.33;44.53
17764;BME280;22245;52.832;13.816;2023-04-27T11:12:47;101819.22;;;9.30;44.79
17764;BME280;22245;52.832;13.816;2023-04-27T11:16:10;101819.13;;;9.32;46.00
17764;BME280;22245;52.832;13.816;2023-04-27T11:19:32;101818.94;;;9.35;46.07
17764;BME280;22245;52.832;13.816;2023-04-27T11:23:04;101824.50;;;9.45;45.26
17764;BME280;22245;52.832;13.816;2023-04-27T11:26:26;101820.63;;;9.50;44.93
17764;BME280;22245;52.832;13.816;2023-04-27T11:29:48;101819.28;;;9.58;44.91
17764;BME280;22245;52.832;13.816;2023-04-27T11:33:10;101826.84;;;9.64;43.12
17764;BME280;22245;52.832;13.816;2023-04-27T11:36:32;101819.53;;;9.67;42.75
17764;BME280;22245;52.832;13.816;2023-04-27T11:39:54;101834.53;;;9.68;41.14
17764;BME280;22245;52.832;13.816;2023-04-27T11:43:18;101828.69;;;9.63;41.41
17764;BME280;22245;52.832;13.816;2023-04-27T11:46:43;101839.50;;;9.60;42.38
17764;BME280;22245;52.832;13.816;2023-04-27T11:50:07;101827.91;;;9.61;41.81
17764;BME280;22245;52.832;13.816;2023-04-27T11:53:30;101825.34;;;9.74;42.85
17764;BME280;22245;52.832;13.816;2023-04-27T11:57:03;101836.88;;;9.88;41.64
17764;BME280;22245;52.832;13.816;2023-04-27T12:00:25;101837.44;;;9.93;40.74
17764;BME280;22245;52.832;13.816;2023-04-27T12:03:47;101842.88;;;9.91;39.92
17764;BME280;22245;52.832;13.816;2023-04-27T12:07:10;101843.06;;;9.88;40.63
17764;BME280;22245;52.832;13.816;2023-04-27T12:10:32;101847.91;;;9.81;41.26
17764;BME280;22245;52.832;13.816;2023-04-27T12:13:54;101842.47;;;9.83;41.61
17764;BME280;22245;52.832;13.816;2023-04-27T12:17:15;101839.75;;;9.84;41.54
17764;BME280;22245;52.832;13.816;2023-04-27T12:20:37;101844.03;;;9.87;40.52
17764;BME280;22245;52.832;13.816;2023-04-27T12:23:59;101852.44;;;9.94;41.01
17764;BME280;22245;52.832;13.816;2023-04-27T12:27:21;101847.78;;;9.97;40.79
17764;BME280;22245;52.832;13.816;2023-04-27T12:30:43;101849.50;;;9.98;41.96
17764;BME280;22245;52.832;13.816;2023-04-27T12:34:05;101850.13;;;10.02;41.26
17764;BME280;22245;52.832;13.816;2023-04-27T12:37:26;101847.94;;;10.09;41.10
17764;BME280;22245;52.832;13.816;2023-04-27T12:40:49;101845.81;;;10.14;40.54
17764;BME280;22245;52.832;13.816;2023-04-27T12:44:12;101847.53;;;10.15;41.07
17764;BME280;22245;52.832;13.816;2023-04-27T12:47:34;101853.50;;;10.19;40.80
17764;BME280;22245;52.832;13.816;2023-04-27T12:50:59;101854.66;;;10.14;41.16
17764;BME280;22245;52.832;13.816;2023-04-27T12:54:20;101856.25;;;10.17;40.21
17764;BME280;22245;52.832;13.816;2023-04-27T12:57:44;101852.00;;;10.14;39.83
17764;BME280;22245;52.832;13.816;2023-04-27T13:01:05;101848.38;;;10.16;40.30
17764;BME280;22245;52.832;13.816;2023-04-27T13:04:33;101838.00;;;10.25;40.17
17764;BME280;22245;52.832;13.816;2023-04-27T13:07:55;101845.78;;;10.28;38.67
17764;BME280;22245;52.832;13.816;2023-04-27T13:11:17;101847.81;;;10.38;39.17
17764;BME280;22245;52.832;13.816;2023-04-27T13:14:40;101836.78;;;10.44;37.33
17764;BME280;22245;52.832;13.816;2023-04-27T13:18:02;101836.16;;;10.53;37.96
17764;BME280;22245;52.832;13.816;2023-04-27T13:21:25;101844.34;;;10.50;36.99
17764;BME280;22245;52.832;13.816;2023-04-27T13:24:48;101844.69;;;10.46;38.38
17764;BME280;22245;52.832;13.816;2023-04-27T13:28:10;101844.03;;;10.42;39.22
17764;BME280;22245;52.832;13.816;2023-04-27T13:31:33;101852.88;;;10.42;37.93
17764;BME280;22245;52.832;13.816;2023-04-27T13:34:55;101848.03;;;10.35;38.27
17764;BME280;22245;52.832;13.816;2023-04-27T13:38:17;101849.81;;;10.34;38.04
17764;BME280;22245;52.832;13.816;2023-04-27T13:41:39;101855.69;;;10.39;38.84
17764;BME280;22245;52.832;13.816;2023-04-27T13:45:00;101853.81;;;10.41;38.92
17764;BME280;22245;52.832;13.816;2023-04-27T13:48:24;101849.34;;;10.42;39.00
17764;BME280;22245;52.832;13.816;2023-04-27T13:51:46;101851.59;;;10.48;39.46
17764;BME280;22245;52.832;13.816;2023-04-27T13:55:10;101852.03;;;10.55;39.54
17764;BME280;22245;52.832;13.816;2023-04-27T13:58:31;101853.00;;;10.54;40.00
17764;BME280;22245;52.832;13.816;2023-04-27T14:01:53;101846.38;;;10.60;39.38
17764;BME280;22245;52.832;13.816;2023-04-27T14:05:16;101853.75;;;10.56;39.39
17764;BME280;22245;52.832;13.816;2023-04-27T14:08:38;101844.50;;;10.62;39.09
17764;BME280;22245;52.832;13.816;2023-04-27T14:12:00;101851.31;;;10.66;39.49
17764;BME280;22245;52.832;13.816;2023-04-27T14:15:21;101839.38;;;10.71;38.99
17764;BME280;22245;52.832;13.816;2023-04-27T14:18:43;101838.56;;;10.84;39.84
17764;BME280;22245;52.832;13.816;2023-04-27T14:22:06;101830.75;;;10.94;38.81
17764;BME280;22245;52.832;13.816;2023-04-27T14:25:28;101845.25;;;11.03;38.24
17764;BME280;22245;52.832;13.816;2023-04-27T14:28:52;101844.50;;;11.13;39.07
17764;BME280;22245;52.832;13.816;2023-04-27T14:32:17;101852.94;;;11.20;38.91
17764;BME280;22245;52.832;13.816;2023-04-27T14:35:39;101844.38;;;11.28;37.60
17764;BME280;22245;52.832;13.816;2023-04-27T14:39:02;101847.91;;;11.28;37.58
17764;BME280;22245;52.832;13.816;2023-04-27T14:42:25;101850.47;;;11.30;37.05
17764;BME280;22245;52.832;13.816;2023-04-27T14:45:47;101850.47;;;11.30;36.97
17764;BME280;22245;52.832;13.816;2023-04-27T14:49:16;101845.34;;;11.27;38.01
17764;BME280;22245;52.832;13.816;2023-04-27T14:52:38;101843.63;;;11.26;37.14
17764;BME280;22245;52.832;13.816;2023-04-27T14:56:01;101847.81;;;11.17;37.23
17764;BME280;22245;52.832;13.816;2023-04-27T14:59:23;101852.72;;;11.10;38.17
17764;BME280;22245;52.832;13.816;2023-04-27T15:02:45;101851.13;;;10.95;38.37
17764;BME280;22245;52.832;13.816;2023-04-27T15:06:07;101852.50;;;10.88;38.57
17764;BME280;22245;52.832;13.816;2023-04-27T15:09:28;101841.53;;;10.92;39.70
17764;BME280;22245;52.832;13.816;2023-04-27T15:12:52;101843.69;;;11.00;40.07
17764;BME280;22245;52.832;13.816;2023-04-27T15:16:13;101839.19;;;11.00;38.55
17764;BME280;22245;52.832;13.816;2023-04-27T15:19:35;101833.41;;;11.07;39.00
17764;BME280;22245;52.832;13.816;2023-04-27T15:22:58;101839.16;;;11.39;38.95
17764;BME280;22245;52.832;13.816;2023-04-27T15:26:19;101834.34;;;11.82;38.57
17764;BME280;22245;52.832;13.816;2023-04-27T15:29:42;101845.03;;;11.82;38.66
17764;BME280;22245;52.832;13.816;2023-04-27T15:33:04;101844.41;;;11.65;37.51
17764;BME280;22245;52.832;13.816;2023-04-27T15:36:29;101844.66;;;11.62;37.47
17764;BME280;22245;52.832;13.816;2023-04-27T15:39:50;101843.59;;;11.52;37.20
17764;BME280;22245;52.832;13.816;2023-04-27T15:43:12;101844.06;;;11.46;38.42
17764;BME280;22245;52.832;13.816;2023-04-27T15:46:35;101840.31;;;11.35;37.84
17764;BME280;22245;52.832;13.816;2023-04-27T15:49:57;101833.72;;;11.28;38.20
17764;BME280;22245;52.832;13.816;2023-04-27T15:53:18;101833.09;;;11.37;38.22
17764;BME280;22245;52.832;13.816;2023-04-27T15:56:39;101832.22;;;11.74;37.69
17764;BME280;22245;52.832;13.816;2023-04-27T16:00:01;101839.09;;;11.90;37.09
17764;BME280;22245;52.832;13.816;2023-04-27T16:03:31;101825.75;;;11.90;36.70
17764;BME280;22245;52.832;13.816;2023-04-27T16:06:54;101827.75;;;11.75;37.09
17764;BME280;22245;52.832;13.816;2023-04-27T16:10:15;101829.19;;;11.54;37.29
17764;BME280;22245;52.832;13.816;2023-04-27T16:13:36;101812.50;;;11.39;38.26
17764;BME280;22245;52.832;13.816;2023-04-27T16:16:58;101818.59;;;11.28;38.25
17764;BME280;22245;52.832;13.816;2023-04-27T16:20:24;101823.06;;;11.28;38.10
17764;BME280;22245;52.832;13.816;2023-04-27T16:23:48;101817.81;;;11.39;38.23
17764;BME280;22245;52.832;13.816;2023-04-27T16:27:09;101813.97;;;11.81;36.51
17764;BME280;22245;52.832;13.816;2023-04-27T16:30:31;101808.59;;;12.18;34.85
17764;BME280;22245;52.832;13.816;2023-04-27T16:33:52;101810.75;;;12.49;35.01
17764;BME280;22245;52.832;13.816;2023-04-27T16:37:15;101796.56;;;12.59;34.17
17764;BME280;22245;52.832;13.816;2023-04-27T16:40:37;101796.63;;;12.94;34.36
17764;BME280;22245;52.832;13.816;2023-04-27T16:43:59;101796.50;;;13.18;34.05
17764;BME280;22245;52.832;13.816;2023-04-27T16:47:23;101798.66;;;13.24;33.58
17764;BME280;22245;52.832;13.816;2023-04-27T16:50:45;101796.94;;;13.35;34.58
17764;BME280;22245;52.832;13.816;2023-04-27T16:54:08;101802.91;;;13.15;33.81
17764;BME280;22245;52.832;13.816;2023-04-27T16:57:31;101795.00;;;13.02;34.38
17764;BME280;22245;52.832;13.816;2023-04-27T17:00:53;101800.94;;;12.72;35.09
17764;BME280;22245;52.832;13.816;2023-04-27T17:04:15;101809.44;;;12.66;35.04
17764;BME280;22245;52.832;13.816;2023-04-27T17:07:37;101802.88;;;12.58;35.26
17764;BME280;22245;52.832;13.816;2023-04-27T17:11:06;101816.00;;;12.50;35.65
17764;BME280;22245;52.832;13.816;2023-04-27T17:14:28;101808.06;;;12.37;35.04
17764;BME280;22245;52.832;13.816;2023-04-27T17:17:49;101804.00;;;12.32;36.40
17764;BME280;22245;52.832;13.816;2023-04-27T17:21:11;101809.59;;;12.28;36.41
17764;BME280;22245;52.832;13.816;2023-04-27T17:24:32;101806.06;;;12.28;36.91
17764;BME280;22245;52.832;13.816;2023-04-27T17:27:56;101804.72;;;12.22;36.91
17764;BME280;22245;52.832;13.816;2023-04-27T17:31:20;101808.94;;;12.13;36.28
17764;BME280;22245;52.832;13.816;2023-04-27T17:34:42;101806.09;;;12.04;36.95